Harbor Isle, New York
Current Conditions -  °F | °C
As of 1:51 PM on Saturday 20 Dec 2014 (Local Time) from KJFK Reporting Station
Overcast Overcast  
Wind Chill: 29°   Ceiling: 2900
Heat Index: 33°   Visibility: 10mi
Dew Point: 19°   Wind: 5mph
Humidity: 56%   Direction: 360°N
Pressure: 30.27"   Gusts: NA
Location:  40.6062°N, 73.6508°W
Report Text: KJFK 201851Z 36004KT 10SM OVC029 01/M07 A3027 RMK AO2 SLP251 T00061072 $
Loading
Personal Weather Stations






























Interactive Weather Map New forecast layout! Learn more

10-Day Weather Forecast

Advertisements
Track Severe Weather on mobile